Time;durP1;ratioP1;P1;durP2;ratioP2;P2;SDS_P1;SDS_P2;PMS_P1;PMS_P2;Temp;Humidity;BMP_temperature;BMP_pressure;BME280_temperature;BME280_humidity;BME280_pressure;Samples;Min_cycle;Max_cycle;Signal;HPM_P1;HPM_P2
2022/08/06 00:02:23;;;;;;;2.23;1.30;;;;;;;;;;4948963;28;20215;-74
2022/08/06 00:04:56;;;;;;;2.33;1.40;;;;;;;;;;4950586;28;20257;-74
2022/08/06 00:07:25;;;;;;;1.17;1.10;;;;;;;;;;4955218;28;20609;-74
2022/08/06 00:09:57;;;;;;;2.30;1.30;;;;;;;;;;4957325;28;20679;-74
2022/08/06 00:12:29;;;;;;;1.63;1.20;;;;;;;;;;4951180;28;20202;-74
2022/08/06 00:15:00;;;;;;;2.30;1.27;;;;;;;;;;4956350;28;20221;-74
2022/08/06 00:17:40;;;;;;;1.73;1.40;;;;;;;;;;4957026;28;20322;-74
2022/08/06 00:20:09;;;;;;;1.83;1.43;;;;;;;;;;4956653;28;20214;-74
2022/08/06 00:22:37;;;;;;;1.40;1.30;;;;;;;;;;4956009;28;20206;-74
2022/08/06 00:25:10;;;;;;;2.43;1.77;;;;;;;;;;4956811;28;20626;-74
2022/08/06 00:27:39;;;;;;;3.37;1.47;;;;;;;;;;4956169;28;20222;-74
2022/08/06 00:30:11;;;;;;;1.50;1.40;;;;;;;;;;4956616;28;20257;-74
2022/08/06 00:32:49;;;;;;;1.67;1.57;;;;;;;;;;4956342;28;20575;-74
2022/08/06 00:35:19;;;;;;;2.37;1.83;;;;;;;;;;4955017;28;20679;-74
2022/08/06 00:37:49;;;;;;;1.60;1.50;;;;;;;;;;4955574;28;20257;-74
2022/08/06 00:40:29;;;;;;;2.20;1.83;;;;;;;;;;4953789;28;20210;-74
2022/08/06 00:42:58;;;;;;;3.67;1.70;;;;;;;;;;4951855;28;20210;-74
2022/08/06 00:45:33;;;;;;;2.40;1.87;;;;;;;;;;4955104;28;20241;-74
2022/08/06 00:48:13;;;;;;;1.60;1.47;;;;;;;;;;4942602;28;20227;-74
2022/08/06 00:51:02;;;;;;;1.90;1.80;;;;;;;;;;4955058;28;20199;-74
2022/08/06 00:53:30;;;;;;;2.33;1.80;;;;;;;;;;4955169;28;20231;-74
2022/08/06 00:56:03;;;;;;;4.40;1.63;;;;;;;;;;4954263;28;20230;-74
2022/08/06 00:58:36;;;;;;;3.33;1.70;;;;;;;;;;4949877;29;20222;-74
2022/08/06 01:01:08;;;;;;;3.23;1.63;;;;;;;;;;4956287;29;20293;-74
2022/08/06 01:03:45;;;;;;;2.70;1.50;;;;;;;;;;4950139;28;20238;-74
2022/08/06 01:06:20;;;;;;;2.70;2.00;;;;;;;;;;4954985;29;20647;-74
2022/08/06 01:09:08;;;;;;;3.37;1.83;;;;;;;;;;4954848;28;20766;-74
2022/08/06 01:11:39;;;;;;;2.10;1.90;;;;;;;;;;4955737;28;20206;-74
2022/08/06 01:14:08;;;;;;;2.13;1.93;;;;;;;;;;4954630;29;20683;-74
2022/08/06 01:16:40;;;;;;;2.03;1.80;;;;;;;;;;4954566;28;20297;-74
2022/08/06 01:19:24;;;;;;;2.17;1.97;;;;;;;;;;4954315;28;20218;-74
2022/08/06 01:22:18;;;;;;;2.77;1.93;;;;;;;;;;4955439;28;20730;-74
2022/08/06 01:25:19;;;;;;;2.73;2.07;;;;;;;;;;4952047;28;20214;-74
2022/08/06 01:27:54;;;;;;;2.23;2.03;;;;;;;;;;4953938;28;20313;-74
2022/08/06 01:30:26;;;;;;;3.73;1.80;;;;;;;;;;4949911;29;20210;-74
2022/08/06 01:32:59;;;;;;;2.10;1.90;;;;;;;;;;4950048;28;20691;-74
2022/08/06 01:35:33;;;;;;;2.97;2.30;;;;;;;;;;4952895;28;20706;-74
2022/08/06 01:38:23;;;;;;;2.57;2.37;;;;;;;;;;4954668;28;20293;-74
2022/08/06 01:40:52;;;;;;;3.40;2.13;;;;;;;;;;4954386;28;20214;-74
2022/08/06 01:43:23;;;;;;;3.23;2.60;;;;;;;;;;4953509;28;20916;-74
2022/08/06 01:46:12;;;;;;;4.03;2.43;;;;;;;;;;4949906;28;20258;-74
2022/08/06 01:48:44;;;;;;;3.83;2.40;;;;;;;;;;4956323;28;20285;-74
2022/08/06 01:51:13;;;;;;;2.60;2.40;;;;;;;;;;4953424;28;20656;-74
2022/08/06 01:54:02;;;;;;;4.17;2.33;;;;;;;;;;4955115;28;20277;-74
2022/08/06 01:56:36;;;;;;;3.57;2.70;;;;;;;;;;4953153;28;20218;-74
2022/08/06 01:59:28;;;;;;;4.07;2.70;;;;;;;;;;4952850;28;20229;-74
2022/08/06 02:01:58;;;;;;;4.03;3.30;;;;;;;;;;4954214;28;20227;-74
2022/08/06 02:04:30;;;;;;;3.47;3.17;;;;;;;;;;4955058;28;20207;-74
2022/08/06 02:07:08;;;;;;;3.67;3.20;;;;;;;;;;4940159;29;20199;-74
2022/08/06 02:09:57;;;;;;;3.93;3.40;;;;;;;;;;4955164;28;20202;-74
2022/08/06 02:12:26;;;;;;;3.53;3.20;;;;;;;;;;4952862;28;20214;-74
2022/08/06 02:14:58;;;;;;;4.90;3.30;;;;;;;;;;4952998;28;20684;-74
2022/08/06 02:17:28;;;;;;;4.27;2.90;;;;;;;;;;4936018;28;20215;-74
2022/08/06 02:20:18;;;;;;;3.93;3.20;;;;;;;;;;4942394;29;20588;-74
2022/08/06 02:23:06;;;;;;;4.87;3.10;;;;;;;;;;4937435;28;20219;-74
2022/08/06 02:25:39;;;;;;;5.80;3.40;;;;;;;;;;4954106;28;20206;-74
2022/08/06 02:28:10;;;;;;;3.53;3.23;;;;;;;;;;4940389;28;20227;-74
2022/08/06 02:30:52;;;;;;;3.63;3.33;;;;;;;;;;4952284;29;20559;-74
2022/08/06 02:33:21;;;;;;;4.63;3.20;;;;;;;;;;4956609;28;20202;-74
2022/08/06 02:36:14;;;;;;;3.47;3.17;;;;;;;;;;4958047;28;20210;-74
2022/08/06 02:38:55;;;;;;;5.27;3.37;;;;;;;;;;4958526;28;20253;-74
2022/08/06 02:41:26;;;;;;;4.50;3.00;;;;;;;;;;4957716;28;20221;-74
2022/08/06 02:43:59;;;;;;;3.40;3.07;;;;;;;;;;4958216;28;20679;-75
2022/08/06 02:46:33;;;;;;;5.43;3.33;;;;;;;;;;4956707;28;20206;-74
2022/08/06 02:49:04;;;;;;;3.27;2.97;;;;;;;;;;4954636;29;20258;-74
2022/08/06 02:51:42;;;;;;;6.77;2.90;;;;;;;;;;4957899;28;20241;-74
2022/08/06 02:54:36;;;;;;;3.50;3.20;;;;;;;;;;4956256;28;20231;-75
2022/08/06 02:57:15;;;;;;;3.20;2.70;;;;;;;;;;4957976;28;20579;-74
2022/08/06 02:59:46;;;;;;;3.80;3.00;;;;;;;;;;4949224;28;20253;-74
2022/08/06 03:02:25;;;;;;;5.17;3.43;;;;;;;;;;4955985;28;20581;-74
2022/08/06 03:04:55;;;;;;;2.87;2.67;;;;;;;;;;4953884;28;20807;-75
2022/08/06 03:07:27;;;;;;;3.53;2.90;;;;;;;;;;4942660;28;20683;-74
2022/08/06 03:09:59;;;;;;;4.43;2.73;;;;;;;;;;4956221;28;20210;-74
2022/08/06 03:12:27;;;;;;;3.30;3.00;;;;;;;;;;4955978;28;20211;-74
2022/08/06 03:14:59;;;;;;;6.00;3.10;;;;;;;;;;4955296;28;20311;-74
2022/08/06 03:17:39;;;;;;;4.23;2.90;;;;;;;;;;4957002;28;20238;-74
2022/08/06 03:20:08;;;;;;;3.63;3.30;;;;;;;;;;4957718;28;20635;-74
2022/08/06 03:22:45;;;;;;;6.33;3.03;;;;;;;;;;4949849;28;20233;-74
2022/08/06 03:25:15;;;;;;;3.40;3.10;;;;;;;;;;4948828;28;20198;-74
2022/08/06 03:27:45;;;;;;;4.37;3.10;;;;;;;;;;4943212;28;20570;-74
2022/08/06 03:30:15;;;;;;;3.50;3.00;;;;;;;;;;4948619;28;20266;-74
2022/08/06 03:33:02;;;;;;;3.03;2.83;;;;;;;;;;4944814;29;20210;-74
2022/08/06 03:35:51;;;;;;;4.00;3.10;;;;;;;;;;4953248;29;20227;-74
2022/08/06 03:38:22;;;;;;;5.17;3.40;;;;;;;;;;4938579;29;20222;-74
2022/08/06 03:40:57;;;;;;;4.50;3.37;;;;;;;;;;4952239;28;20206;-74
2022/08/06 03:43:25;;;;;;;3.67;3.37;;;;;;;;;;4938052;29;20208;-74
2022/08/06 03:46:15;;;;;;;4.07;3.33;;;;;;;;;;4946813;28;20648;-74
2022/08/06 03:48:47;;;;;;;4.30;3.20;;;;;;;;;;4951091;28;20688;-74
2022/08/06 03:51:18;;;;;;;3.50;3.23;;;;;;;;;;4954902;28;20555;-74
2022/08/06 03:54:08;;;;;;;3.70;3.40;;;;;;;;;;4945782;28;20242;-74
2022/08/06 03:56:41;;;;;;;3.87;3.30;;;;;;;;;;4956145;28;20632;-74
2022/08/06 03:59:18;;;;;;;4.37;3.37;;;;;;;;;;4955355;28;20249;-75
2022/08/06 04:01:48;;;;;;;3.97;3.47;;;;;;;;;;4954532;28;20199;-74
2022/08/06 04:04:20;;;;;;;3.87;3.50;;;;;;;;;;4957021;28;20221;-74
2022/08/06 04:06:54;;;;;;;4.47;3.70;;;;;;;;;;4955604;28;20210;-74
2022/08/06 04:09:22;;;;;;;5.73;3.77;;;;;;;;;;4956183;28;20718;-74
2022/08/06 04:12:11;;;;;;;4.53;3.80;;;;;;;;;;4953796;28;20250;-74
2022/08/06 04:15:00;;;;;;;3.90;3.60;;;;;;;;;;4956459;28;20708;-74
2022/08/06 04:17:36;;;;;;;5.33;3.73;;;;;;;;;;4955472;28;20226;-74
2022/08/06 04:20:13;;;;;;;5.67;3.93;;;;;;;;;;4955235;28;20233;-74
2022/08/06 04:22:41;;;;;;;4.50;3.83;;;;;;;;;;4955797;28;20206;-74
2022/08/06 04:25:32;;;;;;;4.93;3.37;;;;;;;;;;4953052;29;20202;-74
2022/08/06 04:28:05;;;;;;;4.10;3.67;;;;;;;;;;4955499;28;20609;-74
2022/08/06 04:30:34;;;;;;;5.33;4.17;;;;;;;;;;4955536;28;20203;-74
2022/08/06 04:33:06;;;;;;;3.93;3.63;;;;;;;;;;4954871;28;20277;-74
2022/08/06 04:35:40;;;;;;;4.07;3.70;;;;;;;;;;4950079;28;20227;-74
2022/08/06 04:38:29;;;;;;;3.90;3.60;;;;;;;;;;4953831;29;20310;-74
2022/08/06 04:40:58;;;;;;;5.67;3.80;;;;;;;;;;4943095;28;20243;-74
2022/08/06 04:43:36;;;;;;;4.10;3.40;;;;;;;;;;4941750;28;20234;-74
2022/08/06 04:46:21;;;;;;;4.37;3.97;;;;;;;;;;4944988;28;20204;-74
2022/08/06 04:48:51;;;;;;;4.03;3.60;;;;;;;;;;4947814;28;20245;-74
2022/08/06 04:51:29;;;;;;;4.23;3.70;;;;;;;;;;4948650;28;20206;-74
2022/08/06 04:54:18;;;;;;;4.13;3.70;;;;;;;;;;4953574;28;20260;-74
2022/08/06 04:56:55;;;;;;;3.77;3.10;;;;;;;;;;4953846;28;20222;-74
2022/08/06 04:59:25;;;;;;;4.97;3.57;;;;;;;;;;4955460;28;20227;-74
2022/08/06 05:02:14;;;;;;;3.50;3.00;;;;;;;;;;4950688;28;20273;-74
2022/08/06 05:04:46;;;;;;;4.47;3.00;;;;;;;;;;4948602;28;20241;-74
2022/08/06 05:07:17;;;;;;;4.10;3.27;;;;;;;;;;4954619;28;20213;-74
2022/08/06 05:09:48;;;;;;;4.77;3.90;;;;;;;;;;4954465;28;20214;-74
2022/08/06 05:12:25;;;;;;;5.40;3.50;;;;;;;;;;4954476;28;20217;-74
2022/08/06 05:14:55;;;;;;;7.57;3.73;;;;;;;;;;4956109;28;20206;-75
2022/08/06 05:17:25;;;;;;;4.23;3.67;;;;;;;;;;4958018;28;20230;-74
2022/08/06 05:20:08;;;;;;;3.90;3.50;;;;;;;;;;4948165;28;20206;-75
2022/08/06 05:22:58;;;;;;;4.47;3.47;;;;;;;;;;4952059;28;20262;-74
2022/08/06 05:25:30;;;;;;;4.30;3.33;;;;;;;;;;4954948;28;20195;-74
2022/08/06 05:28:04;;;;;;;5.43;3.80;;;;;;;;;;4954443;29;20601;-74
2022/08/06 05:30:45;;;;;;;5.10;3.60;;;;;;;;;;4954552;28;20198;-74
2022/08/06 05:33:23;;;;;;;4.87;3.20;;;;;;;;;;4951772;28;20234;-75
2022/08/06 05:35:57;;;;;;;4.10;3.33;;;;;;;;;;4950473;28;20218;-74
2022/08/06 05:38:32;;;;;;;4.30;3.20;;;;;;;;;;4944079;28;20273;-74
2022/08/06 05:41:05;;;;;;;5.50;3.50;;;;;;;;;;4953341;28;20664;-74
2022/08/06 05:43:35;;;;;;;4.77;3.67;;;;;;;;;;4955487;28;20256;-74
2022/08/06 05:46:24;;;;;;;5.93;3.80;;;;;;;;;;4953531;28;20351;-74
2022/08/06 05:48:55;;;;;;;7.43;3.37;;;;;;;;;;4953952;28;20309;-74
2022/08/06 05:51:26;;;;;;;4.57;3.67;;;;;;;;;;4945005;28;20209;-74
2022/08/06 05:54:15;;;;;;;4.03;3.60;;;;;;;;;;4953024;28;20731;-74
2022/08/06 05:56:45;;;;;;;3.80;3.50;;;;;;;;;;4953418;28;20222;-75
2022/08/06 05:59:17;;;;;;;3.77;3.47;;;;;;;;;;4951557;28;20227;-74
2022/08/06 06:02:07;;;;;;;3.87;3.37;;;;;;;;;;4951716;29;20247;-74
2022/08/06 06:04:37;;;;;;;3.60;3.30;;;;;;;;;;4957421;28;20254;-74
2022/08/06 06:07:13;;;;;;;4.17;3.60;;;;;;;;;;4948879;28;20206;-74
2022/08/06 06:10:07;;;;;;;6.43;3.83;;;;;;;;;;4956158;28;20242;-74
2022/08/06 06:12:45;;;;;;;4.10;3.50;;;;;;;;;;4956349;28;20202;-74
2022/08/06 06:15:14;;;;;;;3.47;3.17;;;;;;;;;;4957515;28;20206;-74
2022/08/06 06:18:08;;;;;;;4.90;3.63;;;;;;;;;;4946871;29;20223;-74
2022/08/06 06:20:58;;;;;;;4.73;3.30;;;;;;;;;;4958283;28;20297;-74
2022/08/06 06:23:51;;;;;;;4.47;3.20;;;;;;;;;;4954416;28;20202;-74
2022/08/06 06:26:27;;;;;;;3.27;2.97;;;;;;;;;;4957188;28;20203;-75
2022/08/06 06:29:04;;;;;;;4.60;3.27;;;;;;;;;;4954228;28;20226;-75
2022/08/06 06:31:42;;;;;;;5.37;2.80;;;;;;;;;;4949806;28;20552;-74
2022/08/06 06:34:35;;;;;;;3.13;2.80;;;;;;;;;;4948979;28;20206;-74
2022/08/06 06:37:07;;;;;;;3.17;2.50;;;;;;;;;;4953316;29;20346;-74
2022/08/06 06:39:39;;;;;;;2.93;2.23;;;;;;;;;;4956139;28;20199;-74
2022/08/06 06:42:15;;;;;;;3.43;2.37;;;;;;;;;;4949415;29;20261;-74
2022/08/06 06:45:06;;;;;;;3.37;2.23;;;;;;;;;;4952396;29;20206;-74
2022/08/06 06:47:57;;;;;;;2.17;1.90;;;;;;;;;;4956812;28;20278;-75
2022/08/06 06:50:28;;;;;;;3.50;2.20;;;;;;;;;;4956352;28;20618;-74
2022/08/06 06:52:57;;;;;;;3.50;2.10;;;;;;;;;;4952366;28;20258;-75
2022/08/06 06:55:33;;;;;;;2.70;2.10;;;;;;;;;;4956548;28;20202;-74
2022/08/06 06:58:25;;;;;;;3.50;2.03;;;;;;;;;;4948674;28;20309;-74
2022/08/06 07:00:55;;;;;;;3.93;2.00;;;;;;;;;;4955779;28;20290;-74
2022/08/06 07:03:44;;;;;;;2.70;2.00;;;;;;;;;;4952891;28;20579;-75
2022/08/06 07:06:13;;;;;;;2.90;1.57;;;;;;;;;;4955206;28;20213;-75
2022/08/06 07:09:02;;;;;;;3.15;1.33;;;;;;;;;;4952911;28;20230;-74
2022/08/06 07:11:44;;;;;;;1.70;1.50;;;;;;;;;;4950675;28;20289;-74
2022/08/06 07:14:33;;;;;;;1.85;1.40;;;;;;;;;;4947747;28;20901;-74
2022/08/06 07:17:03;;;;;;;4.03;1.60;;;;;;;;;;4950307;28;20238;-74
2022/08/06 07:19:53;;;;;;;1.67;1.15;;;;;;;;;;4954302;28;20604;-74
2022/08/06 07:22:23;;;;;;;4.57;1.40;;;;;;;;;;4956393;28;20229;-74
2022/08/06 07:24:53;;;;;;;2.28;1.25;;;;;;;;;;4955021;28;20265;-74
2022/08/06 07:27:26;;;;;;;3.50;1.40;;;;;;;;;;4954541;28;20198;-74
2022/08/06 07:30:12;;;;;;;4.45;0.90;;;;;;;;;;4945925;28;20202;-74
2022/08/06 07:32:43;;;;;;;2.20;0.90;;;;;;;;;;4956218;28;20202;-74
2022/08/06 07:35:16;;;;;;;1.75;1.10;;;;;;;;;;4954662;28;20206;-74
2022/08/06 07:37:50;;;;;;;1.75;1.10;;;;;;;;;;4953876;28;20226;-75
2022/08/06 07:40:25;;;;;;;2.47;0.90;;;;;;;;;;4953759;28;20671;-74
2022/08/06 07:43:00;;;;;;;2.55;0.80;;;;;;;;;;4939374;29;20226;-74
2022/08/06 07:45:34;;;;;;;1.50;1.10;;;;;;;;;;4955796;28;20674;-74
2022/08/06 07:48:23;;;;;;;2.65;0.90;;;;;;;;;;4947394;28;20277;-74
2022/08/06 07:50:53;;;;;;;2.38;1.00;;;;;;;;;;4954849;28;20303;-74
2022/08/06 07:53:23;;;;;;;2.72;1.00;;;;;;;;;;4954960;28;20203;-75
2022/08/06 07:56:12;;;;;;;3.15;0.77;;;;;;;;;;4955305;29;20211;-74
2022/08/06 07:58:43;;;;;;;1.50;0.55;;;;;;;;;;4953818;28;20235;-74
2022/08/06 08:01:15;;;;;;;2.75;0.60;;;;;;;;;;4949107;29;20234;-74
2022/08/06 08:06:52;;;;;;;3.15;0.70;;;;;;;;;;4953050;29;20295;-74
2022/08/06 08:09:22;;;;;;;1.92;0.73;;;;;;;;;;4952765;28;20234;-74
2022/08/06 08:12:13;;;;;;;2.65;0.80;;;;;;;;;;4953356;28;20245;-74
2022/08/06 08:15:03;;;;;;;3.15;0.70;;;;;;;;;;4953259;28;20214;-74
2022/08/06 08:17:35;;;;;;;0.93;0.80;;;;;;;;;;4954602;28;20236;-74
2022/08/06 08:20:06;;;;;;;2.28;0.63;;;;;;;;;;4953441;28;20206;-74
2022/08/06 08:22:47;;;;;;;1.88;0.70;;;;;;;;;;4952677;28;20242;-74
2022/08/06 08:25:19;;;;;;;1.85;0.98;;;;;;;;;;4955111;28;20718;-74
2022/08/06 08:28:08;;;;;;;0.90;0.55;;;;;;;;;;4951813;28;20226;-74
2022/08/06 08:30:40;;;;;;;1.50;0.60;;;;;;;;;;4953834;29;20214;-74
2022/08/06 08:33:10;;;;;;;1.20;0.65;;;;;;;;;;4954743;28;20218;-74
2022/08/06 08:35:45;;;;;;;2.45;0.60;;;;;;;;;;4950109;28;20206;-74
2022/08/06 08:38:27;;;;;;;0.82;0.50;;;;;;;;;;4954221;28;20237;-74
2022/08/06 08:40:57;;;;;;;1.20;0.63;;;;;;;;;;4955022;28;20206;-74
2022/08/06 08:43:30;;;;;;;0.63;0.40;;;;;;;;;;4955342;28;20210;-74
2022/08/06 08:46:19;;;;;;;2.28;0.82;;;;;;;;;;4955545;28;20265;-74
2022/08/06 08:49:01;;;;;;;2.30;0.57;;;;;;;;;;4952162;28;20681;-74
2022/08/06 08:51:34;;;;;;;5.40;0.57;;;;;;;;;;4953283;28;20198;-74
2022/08/06 08:54:11;;;;;;;1.02;0.60;;;;;;;;;;4952202;29;20656;-74
2022/08/06 08:56:47;;;;;;;0.98;0.50;;;;;;;;;;4957916;28;20672;-74
2022/08/06 08:59:36;;;;;;;1.13;0.47;;;;;;;;;;4953307;28;20206;-74
2022/08/06 09:02:26;;;;;;;0.70;0.70;;;;;;;;;;4954626;28;20214;-74
2022/08/06 09:04:57;;;;;;;1.48;0.70;;;;;;;;;;4954861;28;20210;-74
2022/08/06 09:07:27;;;;;;;1.58;0.60;;;;;;;;;;4955778;28;20203;-74
2022/08/06 09:10:05;;;;;;;0.80;0.70;;;;;;;;;;4951235;28;20233;-74
2022/08/06 09:12:34;;;;;;;2.95;0.63;;;;;;;;;;4954997;28;20204;-73
2022/08/06 09:15:13;;;;;;;3.35;0.60;;;;;;;;;;4953176;28;20213;-74
2022/08/06 09:17:45;;;;;;;1.40;0.50;;;;;;;;;;4953564;28;20230;-74
2022/08/06 09:20:36;;;;;;;1.17;0.75;;;;;;;;;;4954472;28;20242;-73
2022/08/06 09:23:15;;;;;;;0.98;0.60;;;;;;;;;;4954286;28;20566;-74
2022/08/06 09:25:47;;;;;;;2.67;0.80;;;;;;;;;;4951913;28;20209;-74
2022/08/06 09:28:29;;;;;;;2.00;0.80;;;;;;;;;;4951491;29;20273;-73
2022/08/06 09:31:00;;;;;;;1.67;0.90;;;;;;;;;;4951451;29;20616;-73
2022/08/06 09:33:28;;;;;;;1.08;0.70;;;;;;;;;;4954667;28;20210;-73
2022/08/06 09:36:18;;;;;;;2.90;1.35;;;;;;;;;;4954558;28;20206;-73
2022/08/06 09:38:58;;;;;;;3.60;0.90;;;;;;;;;;4943963;29;20257;-74
2022/08/06 09:41:28;;;;;;;1.15;0.80;;;;;;;;;;4957530;29;20240;-74
2022/08/06 09:43:58;;;;;;;1.65;0.80;;;;;;;;;;4956350;29;20209;-74
2022/08/06 09:46:39;;;;;;;0.95;0.70;;;;;;;;;;4955593;29;20202;-73
2022/08/06 09:49:12;;;;;;;1.17;0.75;;;;;;;;;;4957559;28;20228;-74
2022/08/06 09:52:15;;;;;;;1.63;0.70;;;;;;;;;;4956423;28;20659;-74
2022/08/06 09:54:45;;;;;;;0.98;0.60;;;;;;;;;;4949072;28;20234;-73
2022/08/06 09:57:21;;;;;;;1.42;0.57;;;;;;;;;;4953063;28;20640;-73
2022/08/06 09:59:51;;;;;;;1.35;0.50;;;;;;;;;;4955492;29;20581;-76
2022/08/06 10:02:21;;;;;;;0.93;0.60;;;;;;;;;;4958867;28;20273;-75
2022/08/06 10:05:08;;;;;;;0.47;0.47;;;;;;;;;;4959249;28;20322;-75
2022/08/06 10:07:48;;;;;;;2.55;0.60;;;;;;;;;;4958713;28;20250;-76
2022/08/06 10:10:22;;;;;;;1.02;0.50;;;;;;;;;;4959091;28;20195;-76
2022/08/06 10:13:11;;;;;;;2.35;0.63;;;;;;;;;;4958771;28;20281;-75
2022/08/06 10:15:41;;;;;;;2.03;0.60;;;;;;;;;;4958451;28;20201;-75
2022/08/06 10:18:32;;;;;;;1.15;0.70;;;;;;;;;;4962586;28;20594;-75
2022/08/06 10:21:22;;;;;;;1.10;0.65;;;;;;;;;;4977512;28;20202;-75
2022/08/06 10:23:57;;;;;;;0.45;0.30;;;;;;;;;;4969446;28;20213;-75
2022/08/06 10:26:27;;;;;;;0.50;0.30;;;;;;;;;;4958411;28;20190;-75
2022/08/06 10:29:04;;;;;;;1.35;0.50;;;;;;;;;;4958273;28;20222;-75
2022/08/06 10:31:34;;;;;;;0.73;0.40;;;;;;;;;;4958203;28;20190;-75
2022/08/06 10:34:07;;;;;;;1.08;0.40;;;;;;;;;;4958347;28;20212;-75
2022/08/06 10:36:37;;;;;;;0.28;0.28;;;;;;;;;;4958454;28;20194;-75
2022/08/06 10:39:09;;;;;;;3.50;0.52;;;;;;;;;;4957989;28;20238;-75
2022/08/06 10:41:58;;;;;;;0.70;0.40;;;;;;;;;;4973961;28;20214;-75
2022/08/06 10:44:33;;;;;;;1.67;0.40;;;;;;;;;;4977262;28;20189;-75
2022/08/06 10:47:07;;;;;;;0.82;0.30;;;;;;;;;;4977682;28;20670;-76
2022/08/06 10:49:35;;;;;;;1.17;0.30;;;;;;;;;;4977222;28;20202;-75
2022/08/06 10:52:24;;;;;;;0.65;0.30;;;;;;;;;;4976327;28;20265;-76
2022/08/06 10:54:56;;;;;;;1.67;0.50;;;;;;;;;;4977104;28;20217;-75
2022/08/06 10:57:25;;;;;;;0.75;0.57;;;;;;;;;;4977275;28;20214;-75
2022/08/06 11:00:05;;;;;;;0.90;0.40;;;;;;;;;;4977294;28;20568;-75
2022/08/06 11:02:38;;;;;;;0.63;0.40;;;;;;;;;;4970022;28;20559;-75
2022/08/06 11:05:10;;;;;;;0.88;0.60;;;;;;;;;;4957628;28;20191;-75
2022/08/06 11:08:08;;;;;;;1.15;0.30;;;;;;;;;;4957845;28;20738;-75
2022/08/06 11:10:51;;;;;;;0.47;0.20;;;;;;;;;;4957705;28;20547;-76
2022/08/06 11:13:23;;;;;;;1.08;0.40;;;;;;;;;;4957328;28;20238;-75
2022/08/06 11:16:05;;;;;;;0.80;0.40;;;;;;;;;;4957723;28;20191;-75
2022/08/06 11:18:33;;;;;;;2.97;1.15;;;;;;;;;;4944275;28;20321;-75
2022/08/06 11:21:05;;;;;;;1.48;0.60;;;;;;;;;;4938126;29;20192;-75
2022/08/06 11:23:35;;;;;;;1.88;0.50;;;;;;;;;;4950508;29;20203;-75
2022/08/06 11:26:36;;;;;;;4.13;0.90;;;;;;;;;;4956763;28;20675;-76
2022/08/06 11:29:12;;;;;;;1.13;0.47;;;;;;;;;;4957224;28;20249;-74
2022/08/06 11:31:46;;;;;;;1.70;0.60;;;;;;;;;;4956869;28;20254;-75
2022/08/06 11:34:41;;;;;;;1.30;0.40;;;;;;;;;;4956946;28;20209;-76
2022/08/06 11:37:34;;;;;;;0.90;0.45;;;;;;;;;;4957131;28;20576;-75
2022/08/06 11:40:23;;;;;;;1.27;0.47;;;;;;;;;;4956449;28;20273;-75
2022/08/06 11:42:54;;;;;;;0.98;0.50;;;;;;;;;;4956541;28;20210;-75
2022/08/06 11:45:23;;;;;;;0.75;0.30;;;;;;;;;;4956935;28;20194;-75
2022/08/06 11:48:14;;;;;;;1.08;0.40;;;;;;;;;;4956255;28;20301;-73
2022/08/06 11:51:22;;;;;;;0.65;0.25;;;;;;;;;;4957074;28;20198;-75
2022/08/06 11:54:06;;;;;;;2.22;0.50;;;;;;;;;;4956313;28;20257;-75
2022/08/06 11:56:36;;;;;;;0.73;0.50;;;;;;;;;;4956521;28;20296;-75
2022/08/06 11:59:14;;;;;;;0.30;0.22;;;;;;;;;;4956040;28;20230;-75
2022/08/06 12:01:46;;;;;;;1.55;0.63;;;;;;;;;;4955224;28;20202;-75
2022/08/06 12:04:30;;;;;;;1.85;0.50;;;;;;;;;;4956939;28;20674;-75
2022/08/06 12:07:15;;;;;;;1.60;0.60;;;;;;;;;;4956342;29;20207;-75
2022/08/06 12:09:45;;;;;;;0.63;0.47;;;;;;;;;;4972633;28;20198;-75
2022/08/06 12:12:36;;;;;;;1.63;0.40;;;;;;;;;;4975213;28;20220;-76
2022/08/06 12:15:30;;;;;;;0.75;0.50;;;;;;;;;;4964467;28;20199;-75
2022/08/06 12:18:19;;;;;;;0.82;0.47;;;;;;;;;;4935667;29;20771;-75
2022/08/06 12:20:59;;;;;;;1.58;0.50;;;;;;;;;;4935624;29;21009;-74
2022/08/06 12:23:27;;;;;;;1.20;0.60;;;;;;;;;;4935315;29;20259;-75
2022/08/06 12:26:16;;;;;;;0.90;0.50;;;;;;;;;;4934948;29;20214;-74
2022/08/06 12:29:04;;;;;;;1.90;0.50;;;;;;;;;;4950311;28;20245;-75
2022/08/06 12:31:35;;;;;;;1.15;0.40;;;;;;;;;;4953934;28;20831;-75
2022/08/06 12:34:25;;;;;;;0.77;0.50;;;;;;;;;;4951854;28;20261;-74
2022/08/06 12:36:56;;;;;;;0.50;0.43;;;;;;;;;;4953484;28;20209;-75
2022/08/06 12:40:23;;;;;;;2.10;0.50;;;;;;;;;;4953831;28;20235;-75
2022/08/06 12:42:25;;;;;;;1.35;0.60;;;;;;;;;;4956680;28;20678;-75
2022/08/06 12:45:13;;;;;;;1.17;0.40;;;;;;;;;;4954017;28;20614;-75
2022/08/06 12:48:04;;;;;;;0.98;0.52;;;;;;;;;;4953802;28;20276;-74
2022/08/06 12:50:40;;;;;;;0.73;0.47;;;;;;;;;;4949424;28;20530;-75
2022/08/06 12:53:09;;;;;;;0.80;0.60;;;;;;;;;;4951811;28;20210;-75
2022/08/06 12:55:43;;;;;;;1.30;0.38;;;;;;;;;;4951575;28;20218;-75
2022/08/06 12:58:12;;;;;;;1.80;0.75;;;;;;;;;;4952339;29;20857;-75
2022/08/06 13:01:02;;;;;;;0.80;0.50;;;;;;;;;;4952756;28;20226;-74
2022/08/06 13:03:36;;;;;;;0.73;0.50;;;;;;;;;;4953626;28;20217;-75
2022/08/06 13:06:09;;;;;;;1.13;0.60;;;;;;;;;;4941692;28;20253;-75
2022/08/06 13:08:58;;;;;;;0.80;0.55;;;;;;;;;;4953550;28;20266;-75
2022/08/06 13:11:33;;;;;;;5.95;1.13;;;;;;;;;;4953641;28;20194;-75
2022/08/06 13:14:11;;;;;;;20.08;4.82;;;;;;;;;;4950670;28;20202;-76
2022/08/06 13:16:47;;;;;;;116.28;32.58;;;;;;;;;;4953470;28;20195;-75
2022/08/06 13:19:25;;;;;;;196.60;59.58;;;;;;;;;;4953452;28;20226;-76
2022/08/06 13:22:09;;;;;;;66.13;22.77;;;;;;;;;;4953728;28;20222;-75
2022/08/06 13:24:38;;;;;;;1.25;0.50;;;;;;;;;;4953473;28;20190;-75
2022/08/06 13:27:33;;;;;;;1.92;0.47;;;;;;;;;;4968611;28;20547;-75
2022/08/06 13:30:03;;;;;;;1.05;0.57;;;;;;;;;;4972597;28;20185;-75
2022/08/06 13:32:51;;;;;;;1.00;0.70;;;;;;;;;;4963858;28;20202;-75
2022/08/06 13:35:28;;;;;;;0.80;0.50;;;;;;;;;;4948307;28;20203;-76
2022/08/06 13:38:00;;;;;;;0.93;0.60;;;;;;;;;;4954605;28;20758;-76
2022/08/06 13:40:45;;;;;;;2.15;0.50;;;;;;;;;;4936478;28;20219;-76
2022/08/06 13:43:36;;;;;;;1.20;0.55;;;;;;;;;;4966648;28;20253;-76
2022/08/06 13:46:16;;;;;;;2.03;0.50;;;;;;;;;;4950504;29;20209;-75
2022/08/06 13:48:55;;;;;;;1.20;0.50;;;;;;;;;;4954692;28;20316;-75
2022/08/06 13:51:27;;;;;;;0.65;0.50;;;;;;;;;;4956656;28;20266;-74
2022/08/06 13:53:58;;;;;;;0.65;0.40;;;;;;;;;;4974300;28;20565;-75
2022/08/06 13:56:44;;;;;;;4.80;0.70;;;;;;;;;;4962853;28;20561;-76
2022/08/06 13:59:19;;;;;;;1.38;0.60;;;;;;;;;;4954493;28;20601;-75
2022/08/06 14:01:49;;;;;;;1.52;0.47;;;;;;;;;;4954108;28;20635;-75
2022/08/06 14:04:21;;;;;;;0.50;0.40;;;;;;;;;;4954633;28;20210;-76
2022/08/06 14:06:55;;;;;;;0.80;0.50;;;;;;;;;;4943216;29;20615;-75
2022/08/06 14:09:28;;;;;;;0.55;0.40;;;;;;;;;;4954843;28;20722;-75
2022/08/06 14:12:16;;;;;;;1.02;0.50;;;;;;;;;;4954534;28;20269;-75
2022/08/06 14:14:45;;;;;;;0.65;0.47;;;;;;;;;;4959336;28;20205;-75
2022/08/06 14:17:16;;;;;;;1.58;0.50;;;;;;;;;;4960296;28;20661;-75
2022/08/06 14:19:44;;;;;;;1.67;0.60;;;;;;;;;;4943370;28;20264;-75
2022/08/06 14:22:34;;;;;;;0.60;0.40;;;;;;;;;;4954661;28;20203;-75
2022/08/06 14:25:06;;;;;;;0.40;0.40;;;;;;;;;;4955815;28;20206;-75
2022/08/06 14:27:34;;;;;;;0.60;0.40;;;;;;;;;;4940826;29;20226;-76
2022/08/06 14:30:12;;;;;;;0.88;0.52;;;;;;;;;;4958461;28;20257;-76
2022/08/06 14:32:58;;;;;;;0.50;0.43;;;;;;;;;;4945792;29;20699;-76
2022/08/06 14:35:39;;;;;;;2.15;0.50;;;;;;;;;;4963951;28;20253;-75
2022/08/06 14:38:20;;;;;;;1.05;0.40;;;;;;;;;;4957775;28;20223;-75
2022/08/06 14:46:52;;;;;;;0.40;0.40;;;;;;;;;;4954576;28;20199;-76
2022/08/06 14:49:22;;;;;;;1.13;0.50;;;;;;;;;;4616129;28;10000768;-75
2022/08/06 14:51:50;;;;;;;0.70;0.60;;;;;;;;;;4957718;28;20608;-75
2022/08/06 14:54:40;;;;;;;1.95;0.63;;;;;;;;;;4957332;28;20206;-76
2022/08/06 14:57:10;;;;;;;2.88;0.60;;;;;;;;;;4956899;28;20211;-75
2022/08/06 14:59:58;;;;;;;1.73;0.57;;;;;;;;;;4955630;28;20342;-74
2022/08/06 15:03:07;;;;;;;0.90;0.50;;;;;;;;;;4950528;28;20215;-75
2022/08/06 15:05:48;;;;;;;1.30;0.40;;;;;;;;;;4942227;29;20575;-77
2022/08/06 15:08:34;;;;;;;2.53;0.63;;;;;;;;;;4957390;28;20281;-77
2022/08/06 15:11:04;;;;;;;1.33;0.38;;;;;;;;;;4951280;28;20246;-76
2022/08/06 15:13:50;;;;;;;1.30;0.40;;;;;;;;;;4954922;28;20254;-76
2022/08/06 15:16:21;;;;;;;2.88;0.60;;;;;;;;;;4945831;28;20262;-76
2022/08/06 15:19:10;;;;;;;1.02;0.82;;;;;;;;;;4952532;28;20584;-76
2022/08/06 15:21:56;;;;;;;1.55;0.50;;;;;;;;;;4948548;29;20234;-76
2022/08/06 15:24:28;;;;;;;0.50;0.50;;;;;;;;;;4957201;28;20245;-76
2022/08/06 15:27:02;;;;;;;1.58;0.32;;;;;;;;;;4957511;28;20210;-77
2022/08/06 15:29:36;;;;;;;1.85;0.70;;;;;;;;;;4955441;28;20698;-76
2022/08/06 15:32:08;;;;;;;1.55;0.70;;;;;;;;;;4956385;28;20199;-74
2022/08/06 15:34:47;;;;;;;4.32;1.55;;;;;;;;;;4954923;28;20210;-79
2022/08/06 15:37:19;;;;;;;1.23;0.55;;;;;;;;;;4957433;28;20190;-78
2022/08/06 15:40:08;;;;;;;1.98;0.63;;;;;;;;;;4956216;28;20238;-79
2022/08/06 15:42:41;;;;;;;1.02;0.93;;;;;;;;;;4956650;28;20297;-79
2022/08/06 15:45:10;;;;;;;1.83;0.73;;;;;;;;;;4957009;28;20245;-79
2022/08/06 15:47:59;;;;;;;1.17;0.50;;;;;;;;;;4956402;28;20226;-79
2022/08/06 15:50:33;;;;;;;0.95;0.60;;;;;;;;;;4955798;28;20632;-78
2022/08/06 15:53:15;;;;;;;1.23;0.60;;;;;;;;;;4955193;28;20305;-78
2022/08/06 15:55:51;;;;;;;1.42;0.50;;;;;;;;;;4955270;28;20237;-78